Portada
METAR-TAF:

METAR-TAF

Aeroports :

Mitchell Municipal Airport

Mitchell, Dakota del Sud, Estats Units d'Amèrica

latitud: 43-46N, longitud: 098-02W, altitud: 397 m

Observació

L'informe es va fer fa 20 minuts, a les 15:32 UTC
Vent 4 kt del Est/Sud-Est
Temperatura -4°C
Humitat 100%
Pressió 1020 hPa
Visibilitat: 0.4 km
boira gebradora

METAR: KMHE 281532Z AUTO 12004KT 1/4SM FZFG VV003 M04/M04 A3013 RMK AO2 I1000 T10391044

Hora: 09:52 (15:52 UTC)


TAF: manca

Observacions i pronòstics meteorològics de més de 4000 aeroports (METAR i TAF).

Les estacions disponibles són els punts grocs i vermells al mapa.

Posi el ratolí al punt desitjat per veure el nom de l'estació.

Feu clic per veure les observacions i els pronòstics meteorològics.

Per canviar el mapa: feu clic els botons verds amb una creu de color negre per apropar; al botó verd amb un guió per allunyar la imatge; o en les fletxes verdes per a mapes adjacents.


METAR-TAF: